createdAt,value
2022-08-24T00:02:20.636Z,7.37
2022-08-24T00:07:27.250Z,7.57
2022-08-24T00:12:31.581Z,7.60
2022-08-24T00:17:34.489Z,7.77
2022-08-24T00:22:37.534Z,7.60
2022-08-24T00:27:41.919Z,7.43
2022-08-24T00:32:46.955Z,7.87
2022-08-24T00:37:51.457Z,7.40
2022-08-24T00:42:55.599Z,7.83
2022-08-24T00:48:03.355Z,8.47
2022-08-24T00:53:15.792Z,7.60
2022-08-24T00:58:23.850Z,8.57
2022-08-24T01:03:28.486Z,8.73
2022-08-24T01:08:31.283Z,8.93
2022-08-24T01:13:35.034Z,8.57
2022-08-24T01:18:52.344Z,8.20
2022-08-24T01:23:59.702Z,8.20
2022-08-24T01:29:10.457Z,8.50
2022-08-24T01:34:13.510Z,8.37
2022-08-24T01:39:18.235Z,8.67
2022-08-24T01:44:23.258Z,8.73
2022-08-24T01:49:29.757Z,8.27
2022-08-24T01:54:32.742Z,8.20
2022-08-24T01:59:36.075Z,8.70
2022-08-24T02:04:39.348Z,8.70
2022-08-24T02:09:42.453Z,8.53
2022-08-24T02:14:45.230Z,8.60
2022-08-24T02:19:48.389Z,8.93
2022-08-24T02:24:51.526Z,8.43
2022-08-24T02:29:54.392Z,9.10
2022-08-24T02:34:57.158Z,8.73
2022-08-24T02:40:00.521Z,8.90
2022-08-24T02:45:04.152Z,8.57
2022-08-24T02:50:12.094Z,8.67
2022-08-24T02:55:19.961Z,8.87
2022-08-24T03:00:25.221Z,8.87
2022-08-24T03:05:29.458Z,9.20
2022-08-24T03:10:33.202Z,9.03
2022-08-24T03:15:36.420Z,9.70
2022-08-24T03:20:39.741Z,9.60
2022-08-24T03:25:42.712Z,9.47
2022-08-24T03:30:48.218Z,9.07
2022-08-24T03:35:53.535Z,8.93
2022-08-24T03:40:58.355Z,10.17
2022-08-24T03:46:03.031Z,9.30
2022-08-24T03:51:11.395Z,9.80
2022-08-24T03:56:14.134Z,9.47
2022-08-24T04:01:18.212Z,9.27
2022-08-24T04:06:22.771Z,9.73
2022-08-24T04:11:29.175Z,9.87
2022-08-24T04:16:33.647Z,10.00
2022-08-24T04:21:45.781Z,9.97
2022-08-24T04:26:49.116Z,10.53
2022-08-24T04:31:53.657Z,10.23
2022-08-24T04:36:57.597Z,10.73
2022-08-24T04:42:03.208Z,11.73
2022-08-24T04:47:11.144Z,12.13
2022-08-24T04:52:14.661Z,12.37
2022-08-24T04:57:18.952Z,12.37
2022-08-24T05:02:23.091Z,12.50
2022-08-24T05:07:27.446Z,12.23
2022-08-24T05:12:30.338Z,12.80
2022-08-24T05:17:37.147Z,14.00
2022-08-24T05:22:42.843Z,14.40
2022-08-24T05:27:45.802Z,15.00
2022-08-24T05:32:49.485Z,15.10
2022-08-24T05:37:52.967Z,16.03
2022-08-24T05:42:56.192Z,16.77
2022-08-24T05:47:59.041Z,18.67
2022-08-24T05:53:22.165Z,19.47
2022-08-24T05:58:31.269Z,21.17
2022-08-24T06:03:38.761Z,17.33
2022-08-24T06:08:47.019Z,15.37
2022-08-24T06:13:57.441Z,16.87
2022-08-24T06:19:06.997Z,13.43
2022-08-24T06:24:10.623Z,11.77
2022-08-24T06:29:14.282Z,12.57
2022-08-24T06:34:20.954Z,11.63
2022-08-24T06:39:24.361Z,11.47
2022-08-24T06:44:31.221Z,12.40
2022-08-24T06:49:51.731Z,12.87
2022-08-24T06:54:54.757Z,13.40
2022-08-24T06:59:57.521Z,12.00
2022-08-24T07:05:01.121Z,13.33
2022-08-24T07:10:23.052Z,12.10
2022-08-24T07:15:28.889Z,13.73
2022-08-24T07:20:43.848Z,14.23
2022-08-24T07:25:56.084Z,13.87
2022-08-24T07:31:03.856Z,14.33
2022-08-24T07:36:16.928Z,13.20
2022-08-24T07:41:43.484Z,13.60
2022-08-24T07:46:52.621Z,13.47
2022-08-24T07:51:55.664Z,13.20
2022-08-24T07:57:02.543Z,12.57
2022-08-24T08:02:08.344Z,12.60
2022-08-24T08:07:12.544Z,12.00
2022-08-24T08:12:15.827Z,11.37
2022-08-24T08:17:29.661Z,10.87
2022-08-24T08:22:51.218Z,10.83
2022-08-24T08:28:25.523Z,9.63
2022-08-24T08:33:30.197Z,10.17
2022-08-24T08:38:34.053Z,10.00
2022-08-24T08:44:01.938Z,9.90
2022-08-24T08:49:13.758Z,9.10
2022-08-24T08:54:34.022Z,8.67
2022-08-24T09:00:25.138Z,9.17
2022-08-24T09:05:58.953Z,8.37
2022-08-24T09:11:37.786Z,8.70
2022-08-24T09:17:15.999Z,7.50
2022-08-24T09:22:21.506Z,7.10
2022-08-24T09:27:36.282Z,6.10
2022-08-24T09:33:03.146Z,6.53
2022-08-24T09:38:33.099Z,7.00
2022-08-24T09:44:01.437Z,7.03
2022-08-24T09:49:33.865Z,6.53
2022-08-24T09:55:20.170Z,6.23
2022-08-24T10:00:26.134Z,6.20
2022-08-24T10:05:47.494Z,6.20
2022-08-24T10:11:18.535Z,6.28
2022-08-24T10:16:30.595Z,6.13
2022-08-24T10:22:04.477Z,6.32
2022-08-24T10:27:15.421Z,6.68
2022-08-24T10:32:41.861Z,9.43
2022-08-24T10:38:40.915Z,7.18
2022-08-24T10:44:05.855Z,7.70
2022-08-24T10:49:40.302Z,6.93
2022-08-24T10:54:43.369Z,6.43
2022-08-24T10:59:51.928Z,6.47
2022-08-24T11:05:01.301Z,6.57
2022-08-24T11:10:10.198Z,7.88
2022-08-24T11:15:18.863Z,5.80
2022-08-24T11:20:34.048Z,6.05
2022-08-24T11:25:40.417Z,5.72
2022-08-24T11:30:43.340Z,6.03
2022-08-24T11:35:46.113Z,6.40
2022-08-24T11:40:57.713Z,6.07
2022-08-24T11:46:25.106Z,6.38
2022-08-24T11:51:35.881Z,5.78
2022-08-24T11:56:57.941Z,6.32
2022-08-24T12:02:05.543Z,6.47
2022-08-24T12:07:26.498Z,6.53
2022-08-24T12:13:03.694Z,6.40
2022-08-24T12:18:25.481Z,6.78
2022-08-24T12:23:42.150Z,6.20
2022-08-24T12:28:54.431Z,6.35
2022-08-24T12:34:02.671Z,6.13
2022-08-24T12:39:10.835Z,6.35
2022-08-24T12:44:17.034Z,5.93
2022-08-24T12:49:49.666Z,5.97
2022-08-24T12:55:16.387Z,6.43
2022-08-24T13:00:29.358Z,6.72
2022-08-24T13:05:57.685Z,6.30
2022-08-24T13:11:14.222Z,6.07
2022-08-24T13:16:55.263Z,7.07
2022-08-24T13:22:20.949Z,6.50
2022-08-24T13:27:23.617Z,9.48
2022-08-24T13:32:39.096Z,9.27
2022-08-24T13:37:42.437Z,7.28
2022-08-24T13:43:30.391Z,7.55
2022-08-24T13:48:48.533Z,7.22
2022-08-24T13:53:57.124Z,7.70
2022-08-24T13:59:10.406Z,7.10
2022-08-24T14:04:31.427Z,7.65
2022-08-24T14:09:46.110Z,7.22
2022-08-24T14:15:28.032Z,8.00
2022-08-24T14:20:49.657Z,7.95
2022-08-24T14:26:31.563Z,7.63
2022-08-24T14:31:34.803Z,7.57
2022-08-24T14:36:57.644Z,8.57
2022-08-24T14:42:21.148Z,7.40
2022-08-24T14:47:59.076Z,7.85
2022-08-24T14:53:29.959Z,7.60
2022-08-24T14:59:14.755Z,7.35
2022-08-24T15:04:48.491Z,7.53
2022-08-24T15:09:52.649Z,7.88
2022-08-24T15:15:03.369Z,9.00
2022-08-24T15:20:42.545Z,7.80
2022-08-24T15:25:52.482Z,7.00
2022-08-24T15:31:23.925Z,7.45
2022-08-24T15:36:33.242Z,7.18
2022-08-24T15:41:39.847Z,6.88
2022-08-24T15:46:56.471Z,7.20
2022-08-24T15:52:06.478Z,7.10
2022-08-24T15:57:29.456Z,6.93
2022-08-24T16:02:36.037Z,8.15
2022-08-24T16:08:04.288Z,9.52
2022-08-24T16:13:20.726Z,7.82
2022-08-24T16:18:44.225Z,7.07
2022-08-24T16:23:55.639Z,6.90
2022-08-24T16:28:58.830Z,7.13
2022-08-24T16:34:32.716Z,7.22
2022-08-24T16:39:35.916Z,6.95
2022-08-24T16:44:42.514Z,7.35
2022-08-24T16:49:45.346Z,9.82
2022-08-24T16:54:48.921Z,7.40
2022-08-24T16:59:53.163Z,7.68
2022-08-24T17:04:56.566Z,9.00
2022-08-24T17:10:02.649Z,7.95
2022-08-24T17:15:08.002Z,8.18
2022-08-24T17:20:11.828Z,6.97
2022-08-24T17:25:14.604Z,7.18
2022-08-24T17:30:18.589Z,7.27
2022-08-24T17:35:22.905Z,7.60
2022-08-24T17:40:26.934Z,6.83
2022-08-24T17:45:29.746Z,7.60
2022-08-24T17:50:32.613Z,7.23
2022-08-24T17:55:35.430Z,8.13
2022-08-24T18:00:39.219Z,7.80
2022-08-24T18:05:42.185Z,8.10
2022-08-24T18:10:44.955Z,7.40
2022-08-24T18:15:50.687Z,8.13
2022-08-24T18:20:53.959Z,8.10
2022-08-24T18:25:56.794Z,8.37
2022-08-24T18:31:01.561Z,8.00
2022-08-24T18:36:04.589Z,8.30
2022-08-24T18:41:07.512Z,8.40
2022-08-24T18:46:10.595Z,9.73
2022-08-24T18:51:19.011Z,9.87
2022-08-24T18:56:21.774Z,8.83
2022-08-24T19:01:25.783Z,9.43
2022-08-24T19:06:28.607Z,9.70
2022-08-24T19:11:31.367Z,10.40
2022-08-24T19:16:34.679Z,11.07
2022-08-24T19:21:38.161Z,13.80
2022-08-24T19:26:40.987Z,11.43
2022-08-24T19:31:43.855Z,14.17
2022-08-24T19:36:46.685Z,14.07
2022-08-24T19:41:50.688Z,12.83
2022-08-24T19:46:57.009Z,12.57
2022-08-24T19:52:03.397Z,11.63
2022-08-24T19:57:24.881Z,11.27
2022-08-24T20:02:28.136Z,12.97
2022-08-24T20:07:30.916Z,11.40
2022-08-24T20:12:33.755Z,11.00
2022-08-24T20:17:39.071Z,11.70
2022-08-24T20:22:41.786Z,12.13
2022-08-24T20:27:45.907Z,11.77
2022-08-24T20:32:48.647Z,12.00
2022-08-24T20:37:51.523Z,12.73
2022-08-24T20:42:54.228Z,12.67
2022-08-24T20:47:57.887Z,12.37
2022-08-24T20:53:01.534Z,13.27
2022-08-24T20:58:04.530Z,14.17
2022-08-24T21:03:07.333Z,13.90
2022-08-24T21:08:11.901Z,14.27
2022-08-24T21:13:14.660Z,14.27
2022-08-24T21:18:17.526Z,14.47
2022-08-24T21:23:20.438Z,13.93
2022-08-24T21:28:23.917Z,14.83
2022-08-24T21:33:45.167Z,15.00
2022-08-24T21:38:47.841Z,14.73
2022-08-24T21:43:51.541Z,15.17
2022-08-24T21:48:54.290Z,15.37
2022-08-24T21:53:57.081Z,15.53
2022-08-24T21:59:06.016Z,14.80
2022-08-24T22:04:09.010Z,15.60
2022-08-24T22:09:11.870Z,15.47
2022-08-24T22:14:16.855Z,15.30
2022-08-24T22:19:19.702Z,16.23
2022-08-24T22:24:22.464Z,16.13
2022-08-24T22:29:25.401Z,17.30
2022-08-24T22:34:28.290Z,16.83
2022-08-24T22:39:31.222Z,15.73
2022-08-24T22:44:34.758Z,15.57
2022-08-24T22:49:40.646Z,16.07
2022-08-24T22:54:43.645Z,17.07
2022-08-24T22:59:46.449Z,16.33
2022-08-24T23:04:52.328Z,16.80
2022-08-24T23:09:55.210Z,16.10
2022-08-24T23:14:58.093Z,17.00
2022-08-24T23:20:01.140Z,17.07
2022-08-24T23:25:07.226Z,16.97
2022-08-24T23:30:12.869Z,16.13
2022-08-24T23:35:15.946Z,17.63
2022-08-24T23:40:20.281Z,17.50
2022-08-24T23:45:28.029Z,16.70
2022-08-24T23:50:30.895Z,17.53
2022-08-24T23:55:33.655Z,16.53
